createdAt,value
2023-08-12T00:03:38.071Z,11.40
2023-08-12T00:08:45.040Z,12.40
2023-08-12T00:13:52.169Z,11.60
2023-08-12T00:18:59.552Z,13.80
2023-08-12T00:24:07.181Z,12.50
2023-08-12T00:29:14.104Z,13.20
2023-08-12T00:34:21.220Z,14.00
2023-08-12T00:39:28.302Z,12.50
2023-08-12T00:44:36.152Z,12.60
2023-08-12T00:49:46.729Z,13.30
2023-08-12T00:54:54.602Z,13.10
2023-08-12T01:00:02.619Z,13.40
2023-08-12T01:05:10.534Z,13.50
2023-08-12T01:10:21.675Z,13.80
2023-08-12T01:15:29.016Z,13.60
2023-08-12T01:20:36.934Z,14.00
2023-08-12T01:25:44.431Z,15.00
2023-08-12T01:30:59.023Z,13.10
2023-08-12T01:36:16.529Z,15.00
2023-08-12T01:41:25.431Z,15.20
2023-08-12T01:46:33.226Z,15.70
2023-08-12T01:51:40.354Z,15.20
2023-08-12T01:56:47.333Z,16.00
2023-08-12T02:01:55.363Z,15.50
2023-08-12T02:07:03.840Z,14.40
2023-08-12T02:12:11.190Z,14.80
2023-08-12T02:17:18.087Z,16.70
2023-08-12T02:22:28.099Z,13.10
2023-08-12T02:27:39.492Z,14.20
2023-08-12T02:32:48.991Z,13.50
2023-08-12T02:37:57.076Z,13.80
2023-08-12T02:43:04.329Z,14.20
2023-08-12T02:48:17.396Z,14.10
2023-08-12T02:53:26.621Z,12.90
2023-08-12T02:58:33.941Z,13.20
2023-08-12T03:03:40.922Z,13.00
2023-08-12T03:08:49.231Z,13.40
2023-08-12T03:13:58.108Z,13.30
2023-08-12T03:19:06.960Z,14.10
2023-08-12T03:24:19.570Z,14.10
2023-08-12T03:29:31.800Z,14.10
2023-08-12T03:34:43.663Z,16.60
2023-08-12T03:44:57.662Z,13.90
2023-08-12T03:50:08.532Z,16.70
2023-08-12T03:55:16.046Z,15.30
2023-08-12T04:00:23.415Z,14.30
2023-08-12T04:05:36.430Z,14.80
2023-08-12T04:10:46.184Z,13.60
2023-08-12T04:15:54.778Z,14.90
2023-08-12T04:21:03.048Z,14.90
2023-08-12T04:26:10.598Z,14.70
2023-08-12T04:31:17.693Z,15.40
2023-08-12T04:36:25.192Z,13.40
2023-08-12T04:41:34.991Z,14.00
2023-08-12T04:46:45.958Z,14.10
2023-08-12T04:51:55.026Z,13.60
2023-08-12T04:57:02.381Z,13.30
2023-08-12T05:02:09.483Z,12.40
2023-08-12T05:07:16.746Z,13.00
2023-08-12T05:12:23.746Z,13.90
2023-08-12T05:17:34.005Z,12.80
2023-08-12T05:22:41.993Z,11.40
2023-08-12T05:27:48.912Z,10.90
2023-08-12T05:32:55.848Z,10.10
2023-08-12T05:38:02.852Z,11.10
2023-08-12T05:43:09.714Z,9.70
2023-08-12T05:48:16.559Z,9.40
2023-08-12T05:53:25.392Z,9.00
2023-08-12T05:58:32.300Z,9.20
2023-08-12T06:03:39.294Z,8.20
2023-08-12T06:08:46.275Z,7.60
2023-08-12T06:13:53.082Z,7.60
2023-08-12T06:18:59.972Z,7.20
2023-08-12T06:24:07.674Z,7.00
2023-08-12T06:29:14.872Z,5.50
2023-08-12T06:34:21.671Z,6.10
2023-08-12T06:39:29.801Z,5.60
2023-08-12T06:44:36.743Z,4.90
2023-08-12T06:49:43.701Z,5.50
2023-08-12T06:54:50.854Z,5.50
2023-08-12T06:59:58.239Z,4.90
2023-08-12T07:05:05.607Z,4.80
2023-08-12T07:10:14.045Z,4.50
2023-08-12T07:15:21.134Z,4.80
2023-08-12T07:20:28.115Z,4.70
2023-08-12T07:25:37.858Z,5.10
2023-08-12T07:30:47.528Z,3.80
2023-08-12T07:35:55.532Z,3.80
2023-08-12T07:41:03.262Z,3.60
2023-08-12T07:46:13.418Z,3.90
2023-08-12T07:51:20.432Z,3.70
2023-08-12T07:56:30.065Z,3.80
2023-08-12T08:01:39.147Z,3.90
2023-08-12T08:06:47.593Z,3.50
2023-08-12T08:11:57.268Z,3.80
2023-08-12T08:17:14.529Z,3.60
2023-08-12T08:22:23.760Z,4.30
2023-08-12T08:27:30.854Z,4.30
2023-08-12T08:32:38.014Z,3.40
2023-08-12T08:37:46.229Z,3.90
2023-08-12T08:42:57.915Z,3.20
2023-08-12T08:48:10.088Z,3.50
2023-08-12T08:53:18.304Z,3.00
2023-08-12T08:58:28.621Z,3.20
2023-08-12T09:03:37.976Z,3.40
2023-08-12T09:08:50.964Z,3.00
2023-08-12T09:13:58.110Z,3.60
2023-08-12T09:19:06.007Z,2.80
2023-08-12T09:24:17.437Z,2.80
2023-08-12T09:29:31.290Z,2.30
2023-08-12T09:34:38.494Z,2.50
2023-08-12T09:39:46.296Z,3.50
2023-08-12T09:44:53.475Z,2.70
2023-08-12T09:50:00.880Z,3.70
2023-08-12T09:55:10.456Z,4.00
2023-08-12T10:05:29.565Z,2.60
2023-08-12T10:10:38.565Z,2.80
2023-08-12T10:15:46.429Z,2.80
2023-08-12T10:20:56.581Z,2.80
2023-08-12T10:26:09.216Z,3.00
2023-08-12T10:31:16.501Z,3.40
2023-08-12T10:36:25.264Z,3.40
2023-08-12T10:41:38.084Z,3.30
2023-08-12T10:46:53.857Z,2.70
2023-08-12T10:52:00.774Z,2.40
2023-08-12T10:57:14.538Z,2.60
2023-08-12T11:02:22.792Z,2.40
2023-08-12T11:07:39.751Z,2.80
2023-08-12T11:12:59.171Z,2.60
2023-08-12T11:18:08.183Z,2.10
2023-08-12T11:28:21.988Z,2.30
2023-08-12T11:33:28.964Z,2.30
2023-08-12T11:38:36.107Z,2.90
2023-08-12T11:43:43.369Z,2.50
2023-08-12T11:48:51.890Z,2.20
2023-08-12T11:59:06.303Z,3.40
2023-08-12T12:04:15.895Z,3.20
2023-08-12T12:09:24.484Z,2.60
2023-08-12T12:14:32.531Z,1.70
2023-08-12T12:19:42.425Z,2.70
2023-08-12T12:24:49.923Z,1.80
2023-08-12T12:29:56.947Z,3.70
2023-08-12T12:35:04.513Z,6.60
2023-08-12T12:40:14.560Z,2.70
2023-08-12T12:45:21.965Z,2.80
2023-08-12T12:50:29.654Z,2.40
2023-08-12T12:55:37.186Z,2.80
2023-08-12T13:00:44.215Z,2.20
2023-08-12T13:05:55.072Z,3.70
2023-08-12T13:11:02.846Z,2.70
2023-08-12T13:16:14.967Z,2.30
2023-08-12T13:21:25.115Z,5.70
2023-08-12T13:26:35.757Z,3.90
2023-08-12T13:31:43.354Z,5.40
2023-08-12T13:36:50.989Z,4.80
2023-08-12T13:42:00.694Z,2.60
2023-08-12T13:47:08.396Z,3.30
2023-08-12T13:52:18.168Z,4.30
2023-08-12T13:57:27.176Z,2.90
2023-08-12T14:02:37.208Z,3.00
2023-08-12T14:07:45.704Z,5.30
2023-08-12T14:12:53.473Z,2.80
2023-08-12T14:18:01.398Z,5.50
2023-08-12T14:23:11.694Z,2.90
2023-08-12T14:28:19.049Z,2.30
2023-08-12T14:33:27.248Z,2.30
2023-08-12T14:38:36.625Z,2.70
2023-08-12T14:43:43.779Z,2.20
2023-08-12T14:48:54.892Z,2.20
2023-08-12T14:54:02.261Z,2.30
2023-08-12T14:59:09.435Z,2.30
2023-08-12T15:04:17.759Z,4.20
2023-08-12T15:09:25.009Z,2.80
2023-08-12T15:14:33.491Z,2.40
2023-08-12T15:19:40.861Z,3.50
2023-08-12T15:24:47.885Z,4.10
2023-08-12T15:29:55.118Z,3.30
2023-08-12T15:35:03.354Z,5.40
2023-08-12T15:40:12.881Z,3.40
2023-08-12T15:45:20.987Z,2.50
2023-08-12T15:50:32.127Z,4.00
2023-08-12T15:55:39.922Z,2.80
2023-08-12T16:00:49.897Z,3.10
2023-08-12T16:06:00.609Z,2.20
2023-08-12T16:11:10.564Z,2.60
2023-08-12T16:16:18.235Z,2.50
2023-08-12T16:21:26.550Z,2.30
2023-08-12T16:26:36.620Z,2.30
2023-08-12T16:31:43.728Z,2.90
2023-08-12T16:37:02.072Z,2.30
2023-08-12T16:42:18.622Z,2.30
2023-08-12T16:47:26.906Z,3.10
2023-08-12T16:52:34.275Z,2.60
2023-08-12T16:57:41.442Z,2.80
2023-08-12T17:07:54.054Z,2.90
2023-08-12T17:13:01.148Z,11.90
2023-08-12T17:18:09.388Z,3.40
2023-08-12T17:23:16.339Z,6.10
2023-08-12T17:28:23.481Z,59.50
2023-08-12T17:33:30.636Z,28.60
2023-08-12T17:38:38.066Z,24.20
2023-08-12T17:43:46.642Z,27.60
2023-08-12T17:48:54.160Z,14.40
2023-08-12T17:54:01.202Z,15.10
2023-08-12T17:59:08.478Z,10.80
2023-08-12T18:04:17.690Z,4.10
2023-08-12T18:09:24.682Z,3.80
2023-08-12T18:14:32.436Z,4.10
2023-08-12T18:19:39.722Z,3.90
2023-08-12T18:24:49.208Z,5.40
2023-08-12T18:29:57.660Z,4.00
2023-08-12T18:35:05.124Z,3.70
2023-08-12T18:40:13.538Z,6.80
2023-08-12T18:45:20.898Z,4.10
2023-08-12T18:50:33.381Z,4.50
2023-08-12T18:55:40.291Z,4.30
2023-08-12T19:00:47.356Z,4.50
2023-08-12T19:05:59.989Z,10.60
2023-08-12T19:11:06.991Z,11.10
2023-08-12T19:16:14.054Z,12.90
2023-08-12T19:21:21.108Z,4.80
2023-08-12T19:26:28.000Z,4.00
2023-08-12T19:31:35.090Z,3.80
2023-08-12T19:36:41.988Z,3.20
2023-08-12T19:41:51.564Z,4.00
2023-08-12T19:47:01.818Z,4.00
2023-08-12T19:52:09.494Z,3.70
2023-08-12T19:57:18.189Z,3.50
2023-08-12T20:02:37.697Z,3.90
2023-08-12T20:07:48.606Z,4.30
2023-08-12T20:13:01.265Z,4.40
2023-08-12T20:18:16.281Z,3.40
2023-08-12T20:23:24.900Z,4.40
2023-08-12T20:28:32.028Z,4.10
2023-08-12T20:33:39.636Z,3.60
2023-08-12T20:38:46.940Z,4.90
2023-08-12T20:43:53.923Z,4.10
2023-08-12T20:49:03.133Z,7.00
2023-08-12T20:54:10.014Z,5.90
2023-08-12T20:59:17.012Z,5.00
2023-08-12T21:04:24.438Z,4.90
2023-08-12T21:09:32.789Z,6.20
2023-08-12T21:14:39.868Z,4.00
2023-08-12T21:19:46.796Z,4.40
2023-08-12T21:24:53.651Z,4.30
2023-08-12T21:30:01.049Z,4.20
2023-08-12T21:35:09.359Z,5.40
2023-08-12T21:40:17.803Z,4.80
2023-08-12T21:45:26.886Z,4.90
2023-08-12T21:55:40.687Z,7.10
2023-08-12T22:00:48.277Z,7.90
2023-08-12T22:05:56.195Z,5.80
2023-08-12T22:11:03.780Z,5.10
2023-08-12T22:16:10.836Z,4.60
2023-08-12T22:21:18.187Z,4.30
2023-08-12T22:26:25.081Z,3.80
2023-08-12T22:31:32.299Z,3.70
2023-08-12T22:36:39.770Z,3.90
2023-08-12T22:41:47.042Z,3.90
2023-08-12T22:46:54.162Z,5.70
2023-08-12T22:52:01.025Z,7.40
2023-08-12T22:57:08.477Z,5.70
2023-08-12T23:02:15.839Z,7.00
2023-08-12T23:07:23.263Z,6.50
2023-08-12T23:12:30.909Z,5.10
2023-08-12T23:17:38.006Z,4.60
2023-08-12T23:22:45.098Z,4.60
2023-08-12T23:27:52.036Z,4.00
2023-08-12T23:32:58.959Z,4.00
2023-08-12T23:38:06.118Z,3.90
2023-08-12T23:43:13.165Z,4.50
2023-08-12T23:48:21.891Z,4.20
2023-08-12T23:53:29.452Z,4.20
2023-08-12T23:58:36.535Z,5.00
